createdAt,value
2022-10-16T00:00:17.639Z,1.92
2022-10-16T00:02:48.215Z,2.28
2022-10-16T00:05:23.330Z,2.45
2022-10-16T00:07:58.157Z,1.85
2022-10-16T00:10:26.570Z,2.50
2022-10-16T00:12:54.786Z,2.42
2022-10-16T00:15:24.556Z,2.50
2022-10-16T00:17:53.090Z,2.20
2022-10-16T00:20:21.572Z,2.30
2022-10-16T00:22:49.848Z,2.10
2022-10-16T00:25:18.162Z,2.40
2022-10-16T00:27:46.777Z,2.45
2022-10-16T00:30:15.114Z,2.00
2022-10-16T00:32:51.199Z,2.45
2022-10-16T00:35:19.465Z,1.92
2022-10-16T00:37:47.697Z,2.10
2022-10-16T00:40:16.540Z,2.33
2022-10-16T00:42:44.843Z,1.95
2022-10-16T00:45:13.545Z,2.00
2022-10-16T00:47:45.888Z,2.13
2022-10-16T00:50:24.037Z,1.92
2022-10-16T00:52:56.960Z,2.13
2022-10-16T00:55:26.531Z,1.80
2022-10-16T00:57:55.388Z,2.28
2022-10-16T01:00:26.664Z,2.20
2022-10-16T01:02:56.759Z,1.98
2022-10-16T01:05:44.945Z,2.10
2022-10-16T01:08:19.271Z,2.08
2022-10-16T01:10:54.664Z,2.33
2022-10-16T01:13:27.382Z,2.33
2022-10-16T01:16:01.531Z,2.20
2022-10-16T01:18:36.659Z,2.80
2022-10-16T01:21:08.764Z,2.90
2022-10-16T01:23:51.124Z,3.08
2022-10-16T01:26:41.585Z,3.00
2022-10-16T01:29:17.745Z,3.20
2022-10-16T01:31:52.129Z,2.83
2022-10-16T01:34:33.098Z,3.20
2022-10-16T01:37:11.866Z,3.50
2022-10-16T01:39:42.844Z,2.60
2022-10-16T01:42:17.167Z,2.70
2022-10-16T01:44:50.292Z,2.80
2022-10-16T01:47:22.042Z,2.67
2022-10-16T01:49:51.365Z,2.25
2022-10-16T01:52:24.694Z,2.50
2022-10-16T01:54:56.962Z,3.05
2022-10-16T01:57:27.069Z,2.55
2022-10-16T02:00:01.174Z,2.60
2022-10-16T02:02:33.727Z,2.58
2022-10-16T02:05:11.374Z,2.50
2022-10-16T02:07:39.765Z,2.35
2022-10-16T02:10:08.890Z,2.25
2022-10-16T02:12:40.483Z,2.40
2022-10-16T02:15:11.212Z,2.20
2022-10-16T02:17:39.611Z,2.35
2022-10-16T02:20:08.642Z,1.88
2022-10-16T02:22:40.365Z,2.50
2022-10-16T02:25:12.336Z,3.00
2022-10-16T02:27:46.012Z,2.70
2022-10-16T02:30:25.569Z,2.78
2022-10-16T02:32:55.066Z,2.85
2022-10-16T02:35:25.553Z,3.08
2022-10-16T02:37:55.013Z,3.17
2022-10-16T02:40:25.341Z,3.10
2022-10-16T02:42:55.453Z,3.50
2022-10-16T02:45:27.068Z,3.30
2022-10-16T02:47:55.289Z,3.65
2022-10-16T02:50:25.320Z,4.20
2022-10-16T02:52:54.141Z,4.25
2022-10-16T02:55:22.747Z,4.07
2022-10-16T02:57:51.165Z,4.55
2022-10-16T03:00:19.977Z,4.88
2022-10-16T03:02:49.598Z,4.60
2022-10-16T03:05:18.607Z,4.57
2022-10-16T03:07:46.922Z,4.60
2022-10-16T03:10:15.247Z,4.72
2022-10-16T03:12:43.457Z,5.25
2022-10-16T03:15:12.256Z,4.75
2022-10-16T03:17:40.671Z,4.93
2022-10-16T03:20:11.090Z,4.95
2022-10-16T03:22:39.345Z,4.05
2022-10-16T03:25:08.893Z,5.00
2022-10-16T03:27:37.327Z,4.90
2022-10-16T03:30:06.312Z,5.07
2022-10-16T03:35:08.647Z,5.20
2022-10-16T03:37:38.850Z,5.55
2022-10-16T03:40:08.412Z,5.63
2022-10-16T03:42:36.632Z,5.57
2022-10-16T03:45:05.321Z,5.18
2022-10-16T03:47:34.432Z,5.40
2022-10-16T03:50:06.797Z,4.65
2022-10-16T03:52:35.160Z,5.25
2022-10-16T03:55:05.650Z,4.53
2022-10-16T03:57:34.517Z,4.53
2022-10-16T04:00:03.296Z,4.63
2022-10-16T04:02:32.170Z,4.72
2022-10-16T04:05:00.368Z,4.35
2022-10-16T04:07:30.927Z,5.18
2022-10-16T04:09:59.927Z,4.72
2022-10-16T04:12:29.977Z,5.15
2022-10-16T04:14:58.225Z,4.65
2022-10-16T04:17:27.027Z,5.20
2022-10-16T04:19:56.048Z,5.85
2022-10-16T04:22:24.290Z,5.20
2022-10-16T04:24:52.501Z,5.80
2022-10-16T04:27:23.824Z,5.65
2022-10-16T04:29:54.202Z,6.03
2022-10-16T04:32:22.461Z,5.35
2022-10-16T04:34:51.028Z,5.72
2022-10-16T04:37:19.336Z,5.88
2022-10-16T04:39:50.273Z,5.40
2022-10-16T04:42:18.440Z,5.03
2022-10-16T04:44:46.709Z,4.85
2022-10-16T04:47:16.814Z,4.70
2022-10-16T04:49:45.395Z,5.03
2022-10-16T04:52:14.180Z,4.30
2022-10-16T04:54:42.671Z,3.92
2022-10-16T04:57:11.537Z,4.25
2022-10-16T04:59:39.819Z,3.80
2022-10-16T05:02:08.419Z,3.95
2022-10-16T05:04:38.009Z,3.10
2022-10-16T05:07:06.239Z,3.00
2022-10-16T05:09:36.815Z,2.90
2022-10-16T05:12:05.996Z,2.63
2022-10-16T05:14:34.226Z,2.85
2022-10-16T05:17:02.734Z,2.47
2022-10-16T05:19:30.998Z,1.90
2022-10-16T05:22:00.963Z,1.92
2022-10-16T05:24:29.739Z,2.15
2022-10-16T05:26:58.303Z,2.67
2022-10-16T05:29:26.742Z,2.20
2022-10-16T05:31:55.181Z,2.15
2022-10-16T05:34:23.494Z,2.47
2022-10-16T05:36:51.850Z,2.63
2022-10-16T05:39:22.132Z,2.35
2022-10-16T05:41:52.681Z,1.60
2022-10-16T05:44:21.625Z,2.05
2022-10-16T05:46:50.053Z,1.90
2022-10-16T05:49:18.927Z,2.33
2022-10-16T05:51:47.129Z,1.77
2022-10-16T05:54:15.617Z,2.30
2022-10-16T05:56:46.108Z,2.33
2022-10-16T05:59:14.711Z,2.15
2022-10-16T06:01:42.925Z,2.58
2022-10-16T06:06:39.519Z,2.13
2022-10-16T06:09:11.252Z,2.78
2022-10-16T06:11:39.457Z,2.35
2022-10-16T06:14:10.543Z,2.60
2022-10-16T06:16:40.424Z,2.90
2022-10-16T06:19:09.290Z,2.67
2022-10-16T06:21:37.565Z,2.20
2022-10-16T06:24:06.470Z,2.22
2022-10-16T06:26:35.089Z,2.13
2022-10-16T06:29:03.614Z,2.60
2022-10-16T06:31:34.584Z,2.50
2022-10-16T06:34:04.373Z,2.88
2022-10-16T06:36:32.643Z,2.63
2022-10-16T06:39:00.788Z,3.08
2022-10-16T06:41:28.949Z,3.00
2022-10-16T06:43:57.177Z,3.00
2022-10-16T06:46:26.783Z,2.75
2022-10-16T06:48:56.415Z,2.85
2022-10-16T06:51:26.085Z,2.95
2022-10-16T06:54:05.043Z,2.60
2022-10-16T06:56:34.557Z,2.72
2022-10-16T06:59:05.795Z,2.70
2022-10-16T07:01:34.723Z,2.78
2022-10-16T07:04:05.180Z,2.83
2022-10-16T07:06:35.634Z,2.67
2022-10-16T07:09:06.549Z,2.60
2022-10-16T07:11:35.559Z,2.50
2022-10-16T07:14:04.001Z,2.20
2022-10-16T07:16:33.763Z,2.70
2022-10-16T07:19:04.492Z,2.65
2022-10-16T07:21:36.607Z,2.80
2022-10-16T07:24:07.330Z,2.72
2022-10-16T07:26:37.742Z,2.45
2022-10-16T07:29:06.666Z,3.28
2022-10-16T07:31:35.253Z,2.85
2022-10-16T07:34:04.846Z,2.38
2022-10-16T07:36:35.948Z,2.10
2022-10-16T07:39:12.877Z,1.90
2022-10-16T07:41:41.522Z,1.73
2022-10-16T07:44:10.075Z,1.63
2022-10-16T07:46:38.381Z,1.50
2022-10-16T07:49:08.079Z,1.20
2022-10-16T07:51:36.758Z,1.50
2022-10-16T07:54:05.319Z,1.20
2022-10-16T07:56:35.458Z,1.20
2022-10-16T07:59:11.123Z,1.08
2022-10-16T08:01:40.175Z,1.00
2022-10-16T08:04:11.631Z,1.00
2022-10-16T08:06:41.651Z,1.00
2022-10-16T08:09:10.596Z,1.10
2022-10-16T08:11:39.057Z,1.00
2022-10-16T08:14:07.958Z,1.00
2022-10-16T08:16:36.256Z,0.82
2022-10-16T08:19:04.735Z,0.90
2022-10-16T08:21:34.393Z,0.98
2022-10-16T08:24:03.019Z,0.77
2022-10-16T08:26:31.858Z,1.00
2022-10-16T08:29:00.478Z,0.98
2022-10-16T08:31:28.885Z,1.30
2022-10-16T08:33:57.126Z,0.80
2022-10-16T08:36:25.898Z,0.80
2022-10-16T08:38:55.668Z,1.30
2022-10-16T08:42:05.657Z,0.98
2022-10-16T08:45:02.181Z,1.25
2022-10-16T08:47:45.690Z,0.80
2022-10-16T08:50:19.478Z,1.00
2022-10-16T08:52:48.250Z,0.70
2022-10-16T08:55:31.507Z,0.93
2022-10-16T08:57:59.771Z,0.80
2022-10-16T09:00:29.376Z,0.80
2022-10-16T09:03:08.099Z,0.70
2022-10-16T09:06:00.002Z,0.70
2022-10-16T09:08:38.836Z,0.80
2022-10-16T09:11:16.343Z,1.10
2022-10-16T09:13:55.774Z,0.90
2022-10-16T09:16:29.379Z,1.20
2022-10-16T09:19:05.882Z,0.73
2022-10-16T09:21:37.728Z,0.60
2022-10-16T09:24:13.995Z,0.77
2022-10-16T09:26:43.677Z,0.60
2022-10-16T09:29:14.589Z,0.73
2022-10-16T09:31:43.772Z,0.80
2022-10-16T09:34:25.101Z,1.00
2022-10-16T09:36:54.395Z,0.80
2022-10-16T09:39:23.094Z,0.80
2022-10-16T09:44:32.751Z,0.80
2022-10-16T09:47:05.469Z,1.10
2022-10-16T09:49:35.636Z,0.90
2022-10-16T09:52:08.331Z,0.88
2022-10-16T09:54:37.148Z,0.90
2022-10-16T09:57:09.415Z,0.93
2022-10-16T09:59:49.099Z,0.93
2022-10-16T10:02:19.824Z,0.90
2022-10-16T10:04:54.944Z,0.95
2022-10-16T10:07:27.951Z,0.93
2022-10-16T10:09:58.704Z,0.77
2022-10-16T10:12:30.134Z,0.65
2022-10-16T10:15:06.397Z,0.75
2022-10-16T10:17:35.403Z,0.90
2022-10-16T10:20:19.646Z,0.73
2022-10-16T10:22:48.265Z,1.20
2022-10-16T10:25:44.321Z,0.50
2022-10-16T10:28:26.884Z,0.80
2022-10-16T10:31:04.359Z,0.82
2022-10-16T10:33:43.475Z,0.80
2022-10-16T10:36:24.344Z,0.80
2022-10-16T10:38:57.664Z,0.70
2022-10-16T10:41:48.755Z,0.70
2022-10-16T10:44:26.686Z,0.65
2022-10-16T10:46:59.677Z,0.60
2022-10-16T10:49:38.984Z,0.60
2022-10-16T10:52:28.220Z,0.68
2022-10-16T10:55:04.209Z,0.70
2022-10-16T10:57:40.065Z,0.90
2022-10-16T11:00:21.257Z,0.80
2022-10-16T11:02:56.959Z,0.85
2022-10-16T11:05:41.378Z,0.80
2022-10-16T11:08:18.088Z,0.60
2022-10-16T11:10:55.339Z,0.50
2022-10-16T11:13:32.841Z,0.70
2022-10-16T11:16:03.991Z,0.68
2022-10-16T11:18:44.739Z,0.80
2022-10-16T11:21:16.678Z,0.70
2022-10-16T11:23:50.491Z,0.60
2022-10-16T11:26:22.662Z,0.68
2022-10-16T11:28:52.923Z,0.70
2022-10-16T11:31:29.924Z,0.55
2022-10-16T11:34:08.500Z,0.70
2022-10-16T11:36:42.734Z,0.80
2022-10-16T11:39:22.709Z,0.70
2022-10-16T11:41:53.740Z,0.73
2022-10-16T11:44:40.181Z,0.47
2022-10-16T11:47:46.678Z,0.50
2022-10-16T11:50:24.929Z,0.40
2022-10-16T11:53:00.006Z,0.68
2022-10-16T11:55:33.984Z,0.80
2022-10-16T11:58:08.789Z,0.70
2022-10-16T12:00:44.325Z,0.35
2022-10-16T12:03:22.672Z,0.43
2022-10-16T12:06:15.995Z,0.55
2022-10-16T12:09:41.312Z,0.50
2022-10-16T12:12:30.250Z,0.50
2022-10-16T12:15:22.282Z,0.70
2022-10-16T12:17:55.081Z,0.60
2022-10-16T12:20:31.354Z,0.50
2022-10-16T12:23:03.596Z,0.68
2022-10-16T12:25:34.398Z,1.10
2022-10-16T12:28:05.203Z,0.40
2022-10-16T12:30:36.754Z,0.50
2022-10-16T12:33:07.334Z,0.40
2022-10-16T12:35:45.331Z,0.63
2022-10-16T12:38:23.802Z,0.60
2022-10-16T12:41:00.943Z,0.40
2022-10-16T12:43:38.852Z,0.50
2022-10-16T12:46:23.461Z,0.43
2022-10-16T12:49:06.646Z,0.43
2022-10-16T12:51:38.799Z,0.45
2022-10-16T12:54:16.736Z,0.70
2022-10-16T12:56:56.413Z,0.60
2022-10-16T12:59:35.781Z,0.52
2022-10-16T13:02:23.592Z,0.45
2022-10-16T13:05:10.924Z,1.00
2022-10-16T13:08:03.186Z,0.50
2022-10-16T13:10:42.292Z,0.70
2022-10-16T13:13:26.184Z,0.50
2022-10-16T13:16:08.016Z,0.43
2022-10-16T13:18:45.668Z,0.70
2022-10-16T13:21:34.398Z,0.60
2022-10-16T13:24:10.505Z,0.57
2022-10-16T13:26:46.839Z,0.77
2022-10-16T13:29:15.476Z,0.80
2022-10-16T13:31:46.351Z,0.65
2022-10-16T13:34:18.013Z,1.00
2022-10-16T13:36:48.649Z,0.55
2022-10-16T13:39:22.792Z,0.47
2022-10-16T13:42:08.073Z,0.60
2022-10-16T13:44:42.778Z,0.80
2022-10-16T13:47:18.940Z,0.80
2022-10-16T13:49:47.579Z,0.60
2022-10-16T13:52:20.825Z,0.60
2022-10-16T13:54:49.885Z,0.40
2022-10-16T13:57:27.235Z,0.50
2022-10-16T13:59:57.185Z,0.52
2022-10-16T14:02:30.370Z,0.47
2022-10-16T14:05:00.755Z,0.50
2022-10-16T14:07:33.208Z,0.50
2022-10-16T14:10:06.998Z,0.50
2022-10-16T14:12:37.372Z,0.43
2022-10-16T14:15:06.849Z,0.47
2022-10-16T14:17:37.451Z,0.50
2022-10-16T14:20:08.137Z,0.60
2022-10-16T14:22:45.308Z,0.40
2022-10-16T14:25:28.522Z,0.40
2022-10-16T14:28:04.697Z,0.50
2022-10-16T14:30:35.331Z,0.40
2022-10-16T14:33:05.412Z,0.40
2022-10-16T14:35:36.466Z,0.50
2022-10-16T14:38:07.214Z,0.70
2022-10-16T14:40:39.268Z,0.60
2022-10-16T14:43:09.032Z,0.57
2022-10-16T14:45:39.452Z,0.50
2022-10-16T14:48:19.572Z,0.60
2022-10-16T14:50:49.525Z,0.47
2022-10-16T14:53:18.538Z,0.50
2022-10-16T14:55:49.347Z,0.57
2022-10-16T14:58:21.504Z,0.50
2022-10-16T15:00:51.731Z,1.08
2022-10-16T15:03:20.518Z,0.50
2022-10-16T15:05:48.832Z,0.50
2022-10-16T15:08:18.315Z,0.47
2022-10-16T15:10:46.733Z,0.40
2022-10-16T15:13:15.715Z,0.45
2022-10-16T15:15:47.611Z,0.73
2022-10-16T15:18:21.129Z,0.80
2022-10-16T15:20:51.409Z,0.50
2022-10-16T15:23:22.358Z,0.60
2022-10-16T15:25:55.328Z,0.55
2022-10-16T15:28:26.919Z,0.50
2022-10-16T15:30:59.476Z,0.50
2022-10-16T15:33:37.149Z,0.50
2022-10-16T15:36:09.001Z,0.50
2022-10-16T15:38:37.441Z,0.40
2022-10-16T15:41:06.071Z,0.47
2022-10-16T15:43:34.345Z,0.68
2022-10-16T15:46:06.595Z,0.60
2022-10-16T15:48:35.519Z,0.40
2022-10-16T15:51:07.793Z,4.78
2022-10-16T15:53:36.088Z,1.88
2022-10-16T15:56:06.871Z,0.55
2022-10-16T15:58:36.033Z,0.80
2022-10-16T16:01:06.540Z,0.60
2022-10-16T16:03:37.150Z,0.43
2022-10-16T16:06:10.776Z,0.90
2022-10-16T16:08:39.842Z,48.25
2022-10-16T16:11:10.588Z,5.93
2022-10-16T16:13:39.908Z,19.77
2022-10-16T16:16:11.979Z,64.57
2022-10-16T16:18:41.809Z,27.70
2022-10-16T16:21:12.559Z,9.23
2022-10-16T16:23:42.057Z,97.32
2022-10-16T16:26:14.569Z,164.32
2022-10-16T16:28:44.799Z,136.45
2022-10-16T16:32:07.571Z,55.67
2022-10-16T16:34:39.617Z,2.28
2022-10-16T16:37:08.141Z,1.17
2022-10-16T16:39:43.955Z,1.60
2022-10-16T16:42:12.270Z,1.00
2022-10-16T16:44:40.682Z,3.80
2022-10-16T16:47:11.423Z,1.90
2022-10-16T16:49:41.492Z,129.40
2022-10-16T16:52:10.473Z,3.28
2022-10-16T16:54:39.249Z,2.53
2022-10-16T16:57:07.929Z,2.00
2022-10-16T16:59:36.943Z,0.60
2022-10-16T17:02:05.655Z,0.50
2022-10-16T17:04:35.324Z,0.57
2022-10-16T17:07:03.657Z,1.15
2022-10-16T17:09:34.674Z,0.68
2022-10-16T17:12:02.859Z,0.40
2022-10-16T17:14:32.993Z,0.32
2022-10-16T17:17:01.572Z,0.50
2022-10-16T17:19:29.890Z,0.60
2022-10-16T17:21:59.622Z,0.60
2022-10-16T17:24:28.148Z,0.38
2022-10-16T17:26:56.763Z,0.40
2022-10-16T17:29:25.000Z,0.68
2022-10-16T17:31:53.517Z,0.60
2022-10-16T17:34:21.839Z,0.55
2022-10-16T17:36:50.629Z,0.50
2022-10-16T17:39:20.311Z,0.57
2022-10-16T17:41:49.594Z,0.75
2022-10-16T17:44:21.646Z,0.40
2022-10-16T17:46:51.343Z,0.60
2022-10-16T17:49:20.734Z,0.60
2022-10-16T17:51:52.033Z,0.52
2022-10-16T17:54:22.141Z,0.70
2022-10-16T17:56:50.585Z,0.70
2022-10-16T17:59:22.961Z,0.40
2022-10-16T18:01:51.320Z,0.43
2022-10-16T18:04:19.886Z,0.60
2022-10-16T18:06:48.668Z,0.50
2022-10-16T18:09:20.789Z,0.52
2022-10-16T18:11:59.854Z,0.40
2022-10-16T18:14:29.620Z,0.80
2022-10-16T18:16:59.409Z,0.60
2022-10-16T18:19:28.697Z,0.60
2022-10-16T18:21:57.510Z,0.57
2022-10-16T18:24:26.815Z,0.60
2022-10-16T18:26:58.044Z,0.57
2022-10-16T18:29:28.013Z,0.73
2022-10-16T18:31:57.148Z,0.50
2022-10-16T18:34:26.901Z,0.52
2022-10-16T18:36:57.542Z,1.10
2022-10-16T18:39:25.938Z,1.58
2022-10-16T18:41:59.567Z,1.00
2022-10-16T18:44:31.400Z,0.80
2022-10-16T18:46:59.886Z,0.90
2022-10-16T18:49:29.598Z,0.80
2022-10-16T18:51:58.818Z,0.88
2022-10-16T18:54:27.467Z,0.63
2022-10-16T18:56:56.131Z,0.90
2022-10-16T18:59:26.489Z,0.65
2022-10-16T19:01:58.611Z,0.90
2022-10-16T19:04:30.643Z,1.05
2022-10-16T19:06:59.542Z,0.90
2022-10-16T19:09:28.509Z,1.30
2022-10-16T19:11:57.662Z,1.00
2022-10-16T19:14:27.732Z,0.80
2022-10-16T19:16:58.342Z,1.52
2022-10-16T19:19:27.404Z,1.42
2022-10-16T19:22:11.440Z,1.23
2022-10-16T19:24:40.673Z,1.00
2022-10-16T19:27:09.724Z,1.00
2022-10-16T19:29:38.093Z,1.10
2022-10-16T19:32:08.540Z,1.30
2022-10-16T19:34:36.955Z,1.33
2022-10-16T19:37:05.295Z,1.30
2022-10-16T19:39:33.537Z,1.30
2022-10-16T19:42:01.801Z,1.55
2022-10-16T19:44:30.303Z,1.30
2022-10-16T19:46:59.365Z,1.65
2022-10-16T19:49:29.782Z,1.60
2022-10-16T19:51:58.214Z,1.38
2022-10-16T19:54:26.558Z,1.63
2022-10-16T19:56:54.820Z,1.33
2022-10-16T19:59:23.195Z,1.45
2022-10-16T20:01:52.874Z,1.45
2022-10-16T20:04:21.186Z,1.45
2022-10-16T20:09:22.001Z,1.30
2022-10-16T20:11:50.267Z,1.42
2022-10-16T20:14:18.917Z,1.20
2022-10-16T20:16:47.327Z,1.40
2022-10-16T20:19:16.008Z,1.27
2022-10-16T20:21:44.288Z,1.23
2022-10-16T20:24:14.105Z,1.50
2022-10-16T20:26:42.414Z,1.33
2022-10-16T20:29:10.812Z,1.38
2022-10-16T20:31:39.772Z,1.25
2022-10-16T20:34:10.005Z,1.30
2022-10-16T20:36:42.989Z,1.20
2022-10-16T20:39:14.895Z,1.27
2022-10-16T20:41:43.871Z,1.00
2022-10-16T20:44:12.370Z,1.20
2022-10-16T20:46:41.639Z,1.27
2022-10-16T20:49:27.876Z,1.38
2022-10-16T20:51:57.099Z,1.30
2022-10-16T20:54:26.745Z,1.58
2022-10-16T20:57:01.469Z,1.85
2022-10-16T20:59:33.629Z,1.90
2022-10-16T21:02:02.048Z,1.95
2022-10-16T21:04:31.430Z,1.40
2022-10-16T21:07:00.420Z,1.88
2022-10-16T21:09:31.305Z,1.55
2022-10-16T21:12:01.139Z,1.80
2022-10-16T21:14:30.703Z,1.67
2022-10-16T21:16:59.933Z,1.55
2022-10-16T21:19:32.723Z,2.03
2022-10-16T21:22:01.335Z,1.67
2022-10-16T21:24:31.333Z,1.90
2022-10-16T21:26:59.825Z,1.95
2022-10-16T21:29:28.498Z,1.95
2022-10-16T21:31:56.731Z,2.40
2022-10-16T21:34:25.124Z,2.25
2022-10-16T21:36:53.527Z,2.00
2022-10-16T21:39:22.493Z,2.10
2022-10-16T21:41:52.765Z,1.70
2022-10-16T21:44:21.191Z,2.25
2022-10-16T21:46:51.461Z,2.30
2022-10-16T21:49:20.637Z,2.38
2022-10-16T21:51:50.369Z,2.03
2022-10-16T21:54:20.682Z,2.88
2022-10-16T21:56:49.033Z,2.28
2022-10-16T21:59:18.836Z,1.98
2022-10-16T22:01:47.341Z,2.05
2022-10-16T22:04:17.432Z,2.00
2022-10-16T22:06:47.983Z,1.80
2022-10-16T22:09:23.177Z,2.20
2022-10-16T22:11:53.254Z,2.20
2022-10-16T22:14:26.930Z,2.10
2022-10-16T22:16:58.899Z,2.30
2022-10-16T22:20:29.914Z,2.30
2022-10-16T22:23:01.305Z,2.50
2022-10-16T22:25:35.248Z,2.70
2022-10-16T22:28:03.848Z,2.45
2022-10-16T22:30:36.109Z,2.33
2022-10-16T22:33:04.784Z,2.10
2022-10-16T22:35:38.091Z,2.47
2022-10-16T22:38:06.780Z,2.00
2022-10-16T22:40:35.484Z,2.00
2022-10-16T22:43:07.130Z,2.67
2022-10-16T22:45:37.774Z,2.47
2022-10-16T22:48:06.734Z,2.20
2022-10-16T22:50:35.375Z,2.10
2022-10-16T22:53:03.917Z,2.28
2022-10-16T22:55:32.603Z,2.38
2022-10-16T22:58:01.290Z,2.35
2022-10-16T23:00:29.672Z,2.20
2022-10-16T23:02:59.383Z,2.13
2022-10-16T23:05:27.851Z,2.47
2022-10-16T23:07:56.053Z,2.13
2022-10-16T23:10:27.662Z,1.83
2022-10-16T23:12:56.176Z,2.13
2022-10-16T23:15:24.437Z,2.35
2022-10-16T23:17:52.893Z,2.10
2022-10-16T23:20:22.485Z,2.35
2022-10-16T23:22:50.684Z,2.13
2022-10-16T23:25:19.244Z,2.20
2022-10-16T23:27:47.742Z,2.45
2022-10-16T23:30:16.356Z,2.10
2022-10-16T23:32:45.090Z,2.17
2022-10-16T23:35:13.258Z,2.50
2022-10-16T23:37:42.971Z,2.80
2022-10-16T23:40:12.243Z,2.50
2022-10-16T23:42:40.491Z,2.38
2022-10-16T23:45:09.177Z,2.13
2022-10-16T23:47:37.751Z,2.20
2022-10-16T23:50:07.405Z,2.20
2022-10-16T23:52:35.591Z,2.30
2022-10-16T23:55:05.906Z,2.40
2022-10-16T23:57:34.146Z,2.20
